createdAt,value
2022-07-30T00:00:27.708Z,72.53
2022-07-30T00:01:29.427Z,72.67
2022-07-30T00:02:31.102Z,72.51
2022-07-30T00:03:34.012Z,72.49
2022-07-30T00:04:35.878Z,72.17
2022-07-30T00:05:37.626Z,72.22
2022-07-30T00:06:39.994Z,72.24
2022-07-30T00:07:41.740Z,72.10
2022-07-30T00:08:43.342Z,72.29
2022-07-30T00:09:45.097Z,72.40
2022-07-30T00:10:46.680Z,72.01
2022-07-30T00:11:51.995Z,71.12
2022-07-30T00:12:53.655Z,71.42
2022-07-30T00:13:55.659Z,71.51
2022-07-30T00:14:57.289Z,71.12
2022-07-30T00:15:58.940Z,70.81
2022-07-30T00:17:02.032Z,70.72
2022-07-30T00:18:05.323Z,70.75
2022-07-30T00:19:07.085Z,71.07
2022-07-30T00:20:10.579Z,71.04
2022-07-30T00:21:34.666Z,70.98
2022-07-30T00:22:36.635Z,70.83
2022-07-30T00:23:38.258Z,70.93
2022-07-30T00:24:39.864Z,71.12
2022-07-30T00:25:41.505Z,71.04
2022-07-30T00:26:43.116Z,71.32
2022-07-30T00:27:45.422Z,71.03
2022-07-30T00:28:47.101Z,70.88
2022-07-30T00:29:49.282Z,70.54
2022-07-30T00:30:52.729Z,70.19
2022-07-30T00:31:57.992Z,69.63
2022-07-30T00:32:59.657Z,69.85
2022-07-30T00:34:01.354Z,70.18
2022-07-30T00:35:03.495Z,70.20
2022-07-30T00:36:05.248Z,70.41
2022-07-30T00:37:06.866Z,70.84
2022-07-30T00:38:08.493Z,70.48
2022-07-30T00:39:10.142Z,70.60
2022-07-30T00:40:11.912Z,71.55
2022-07-30T00:41:15.577Z,71.89
2022-07-30T00:42:23.462Z,71.92
2022-07-30T00:43:25.071Z,72.14
2022-07-30T00:44:27.980Z,72.09
2022-07-30T00:45:29.723Z,71.90
2022-07-30T00:46:31.419Z,72.19
2022-07-30T00:47:33.069Z,71.99
2022-07-30T00:48:34.634Z,71.81
2022-07-30T00:49:36.213Z,72.01
2022-07-30T00:50:38.680Z,72.16
2022-07-30T00:51:40.254Z,72.12
2022-07-30T00:52:42.932Z,72.13
2022-07-30T00:53:44.532Z,72.07
2022-07-30T00:54:46.093Z,72.63
2022-07-30T00:55:47.911Z,72.41
2022-07-30T00:56:50.002Z,70.68
2022-07-30T00:57:51.627Z,71.74
2022-07-30T00:58:53.245Z,71.51
2022-07-30T00:59:55.646Z,69.70
2022-07-30T01:00:57.472Z,70.87
2022-07-30T01:02:01.746Z,70.92
2022-07-30T01:03:04.786Z,71.56
2022-07-30T01:04:11.499Z,72.26
2022-07-30T01:05:13.783Z,72.23
2022-07-30T01:06:15.712Z,73.33
2022-07-30T01:07:17.436Z,73.65
2022-07-30T01:08:19.029Z,73.85
2022-07-30T01:09:20.803Z,74.17
2022-07-30T01:10:22.675Z,74.52
2022-07-30T01:11:32.496Z,74.51
2022-07-30T01:12:34.353Z,75.23
2022-07-30T01:13:36.012Z,76.67
2022-07-30T01:14:38.561Z,77.33
2022-07-30T01:15:40.536Z,75.54
2022-07-30T01:16:43.257Z,75.59
2022-07-30T01:17:52.757Z,75.10
2022-07-30T01:19:16.624Z,76.05
2022-07-30T01:20:26.814Z,76.14
2022-07-30T01:21:37.402Z,76.40
2022-07-30T01:22:55.326Z,76.68
2022-07-30T01:24:06.749Z,75.84
2022-07-30T01:25:24.035Z,75.70
2022-07-30T01:26:26.591Z,75.66
2022-07-30T01:27:49.407Z,75.84
2022-07-30T01:28:56.081Z,75.88
2022-07-30T01:29:59.656Z,75.58
2022-07-30T01:31:03.882Z,74.72
2022-07-30T01:32:07.765Z,73.92
2022-07-30T01:33:14.988Z,73.56
2022-07-30T01:34:17.689Z,73.12
2022-07-30T01:35:21.817Z,72.98
2022-07-30T01:36:24.349Z,72.82
2022-07-30T01:37:28.149Z,72.74
2022-07-30T01:38:35.191Z,72.71
2022-07-30T01:39:38.664Z,73.20
2022-07-30T01:40:42.969Z,73.20
2022-07-30T01:41:45.271Z,72.92
2022-07-30T01:42:53.527Z,72.52
2022-07-30T01:43:55.982Z,72.34
2022-07-30T01:44:59.105Z,72.93
2022-07-30T01:46:02.953Z,74.56
2022-07-30T01:47:05.551Z,75.39
2022-07-30T01:48:09.925Z,76.52
2022-07-30T01:49:12.344Z,77.09
2022-07-30T01:50:15.225Z,77.73
2022-07-30T01:51:19.389Z,78.35
2022-07-30T01:52:22.567Z,78.74
2022-07-30T01:53:26.177Z,78.97
2022-07-30T01:54:29.562Z,79.60
2022-07-30T01:55:41.002Z,79.70
2022-07-30T01:56:44.437Z,79.88
2022-07-30T01:57:48.986Z,80.43
2022-07-30T01:58:52.530Z,80.98
2022-07-30T02:00:01.929Z,80.88
2022-07-30T02:01:04.041Z,80.95
2022-07-30T02:02:07.561Z,80.66
2022-07-30T02:03:10.821Z,81.07
2022-07-30T02:04:12.498Z,81.63
2022-07-30T02:05:14.687Z,81.66
2022-07-30T02:06:26.589Z,81.68
2022-07-30T02:07:36.866Z,81.55
2022-07-30T02:08:41.881Z,81.54
2022-07-30T02:10:05.464Z,81.23
2022-07-30T02:11:36.658Z,81.21
2022-07-30T02:12:47.313Z,80.66
2022-07-30T02:13:53.080Z,80.33
2022-07-30T02:15:11.761Z,80.07
2022-07-30T02:16:27.281Z,80.31
2022-07-30T02:18:01.077Z,80.88
2022-07-30T02:19:06.783Z,81.41
2022-07-30T02:20:11.333Z,81.17
2022-07-30T02:21:19.364Z,78.84
2022-07-30T02:22:23.412Z,81.62
2022-07-30T02:23:28.255Z,82.41
2022-07-30T02:24:32.301Z,82.55
2022-07-30T02:25:35.969Z,82.05
2022-07-30T02:26:38.873Z,81.65
2022-07-30T02:27:45.128Z,82.45
2022-07-30T02:28:51.368Z,82.99
2022-07-30T02:29:55.773Z,82.65
2022-07-30T02:31:00.109Z,82.11
2022-07-30T02:32:09.427Z,81.50
2022-07-30T02:33:14.116Z,81.57
2022-07-30T02:34:17.128Z,81.65
2022-07-30T02:35:21.241Z,81.88
2022-07-30T02:36:24.218Z,82.69
2022-07-30T02:37:42.805Z,80.91
2022-07-30T02:38:46.942Z,80.26
2022-07-30T02:39:51.050Z,81.14
2022-07-30T02:40:54.672Z,81.81
2022-07-30T02:41:58.019Z,81.65
2022-07-30T02:43:00.932Z,81.39
2022-07-30T02:44:04.455Z,81.44
2022-07-30T02:45:07.300Z,81.12
2022-07-30T02:46:12.061Z,81.19
2022-07-30T02:47:16.618Z,80.56
2022-07-30T02:48:34.185Z,81.12
2022-07-30T02:49:37.068Z,82.01
2022-07-30T02:50:40.216Z,82.36
2022-07-30T02:51:42.985Z,82.50
2022-07-30T02:52:45.344Z,82.21
2022-07-30T02:53:51.831Z,81.47
2022-07-30T02:54:56.328Z,81.28
2022-07-30T02:56:01.240Z,81.79
2022-07-30T02:57:04.397Z,81.76
2022-07-30T02:58:07.636Z,81.92
2022-07-30T02:59:11.156Z,81.92
2022-07-30T03:00:13.520Z,81.72
2022-07-30T03:01:18.320Z,80.83
2022-07-30T03:02:25.900Z,80.11
2022-07-30T03:03:32.789Z,80.31
2022-07-30T03:04:36.479Z,80.70
2022-07-30T03:05:41.501Z,80.72
2022-07-30T03:06:44.022Z,80.61
2022-07-30T03:07:46.588Z,80.81
2022-07-30T03:08:48.521Z,80.79
2022-07-30T03:09:53.423Z,81.33
2022-07-30T03:10:56.494Z,81.18
2022-07-30T03:11:59.048Z,81.38
2022-07-30T03:13:02.367Z,81.56
2022-07-30T03:14:04.275Z,80.99
2022-07-30T03:15:06.680Z,81.06
2022-07-30T03:16:10.809Z,81.11
2022-07-30T03:17:16.024Z,81.31
2022-07-30T03:18:19.184Z,80.79
2022-07-30T03:19:24.024Z,80.72
2022-07-30T03:20:29.635Z,80.94
2022-07-30T03:21:34.813Z,80.31
2022-07-30T03:22:41.787Z,80.82
2022-07-30T03:23:45.150Z,80.69
2022-07-30T03:24:49.301Z,80.35
2022-07-30T03:26:02.183Z,79.64
2022-07-30T03:27:05.510Z,79.75
2022-07-30T03:28:08.392Z,79.74
2022-07-30T03:29:11.821Z,79.11
2022-07-30T03:30:13.858Z,77.06
2022-07-30T03:31:16.981Z,75.77
2022-07-30T03:32:20.199Z,76.39
2022-07-30T03:33:38.092Z,75.96
2022-07-30T03:34:42.381Z,76.95
2022-07-30T03:35:47.198Z,77.77
2022-07-30T03:36:49.964Z,78.80
2022-07-30T03:37:51.924Z,78.62
2022-07-30T03:38:54.564Z,79.23
2022-07-30T03:39:58.185Z,79.65
2022-07-30T03:41:00.676Z,80.11
2022-07-30T03:42:03.576Z,80.21
2022-07-30T03:43:05.233Z,79.59
2022-07-30T03:44:21.359Z,79.26
2022-07-30T03:45:23.447Z,79.38
2022-07-30T03:46:26.576Z,80.35
2022-07-30T03:47:28.522Z,81.27
2022-07-30T03:48:33.568Z,81.62
2022-07-30T03:49:35.255Z,81.98
2022-07-30T03:50:37.928Z,82.05
2022-07-30T03:51:39.895Z,82.19
2022-07-30T03:52:42.052Z,81.56
2022-07-30T03:53:45.218Z,81.31
2022-07-30T03:54:48.606Z,80.91
2022-07-30T03:55:52.021Z,81.31
2022-07-30T03:56:53.887Z,81.44
2022-07-30T03:57:55.735Z,81.67
2022-07-30T03:58:57.438Z,82.37
2022-07-30T03:59:59.177Z,82.15
2022-07-30T04:01:00.906Z,81.95
2022-07-30T04:02:06.902Z,81.50
2022-07-30T04:03:10.564Z,81.31
2022-07-30T04:04:12.252Z,81.79
2022-07-30T04:05:14.952Z,81.54
2022-07-30T04:06:16.577Z,81.17
2022-07-30T04:07:18.502Z,81.21
2022-07-30T04:08:20.361Z,80.91
2022-07-30T04:09:22.926Z,80.88
2022-07-30T04:10:24.530Z,80.73
2022-07-30T04:11:41.318Z,79.93
2022-07-30T04:12:43.522Z,79.45
2022-07-30T04:13:45.199Z,79.57
2022-07-30T04:14:47.896Z,79.39
2022-07-30T04:16:34.324Z,79.49
2022-07-30T04:17:22.174Z,79.19
2022-07-30T04:18:26.912Z,78.87
2022-07-30T04:19:36.837Z,78.63
2022-07-30T04:20:43.557Z,78.04
2022-07-30T04:21:48.271Z,78.20
2022-07-30T04:22:51.083Z,78.55
2022-07-30T04:24:04.082Z,77.54
2022-07-30T04:25:08.828Z,76.42
2022-07-30T04:26:10.799Z,76.07
2022-07-30T04:27:12.860Z,76.42
2022-07-30T04:28:14.852Z,76.40
2022-07-30T04:29:21.417Z,75.70
2022-07-30T04:30:27.666Z,74.43
2022-07-30T04:31:40.724Z,73.22
2022-07-30T04:32:43.255Z,73.14
2022-07-30T04:33:47.968Z,72.13
2022-07-30T04:34:51.844Z,72.18
2022-07-30T04:35:53.974Z,72.43
2022-07-30T04:36:55.597Z,72.86
2022-07-30T04:37:57.643Z,72.94
2022-07-30T04:39:00.508Z,72.64
2022-07-30T04:40:02.155Z,72.16
2022-07-30T04:41:04.016Z,71.96
2022-07-30T04:42:05.636Z,71.28
2022-07-30T04:43:08.196Z,71.17
2022-07-30T04:44:09.799Z,71.51
2022-07-30T04:45:11.779Z,71.85
2022-07-30T04:46:15.491Z,71.39
2022-07-30T04:47:21.707Z,70.48
2022-07-30T04:48:23.485Z,71.08
2022-07-30T04:49:26.217Z,70.98
2022-07-30T04:50:29.165Z,70.76
2022-07-30T04:51:34.515Z,70.56
2022-07-30T04:52:36.629Z,70.80
2022-07-30T04:53:38.481Z,70.58
2022-07-30T04:54:46.216Z,70.25
2022-07-30T04:55:49.389Z,69.78
2022-07-30T04:57:00.886Z,70.24
2022-07-30T04:58:04.105Z,69.35
2022-07-30T04:59:06.909Z,69.07
2022-07-30T05:00:09.184Z,68.42
2022-07-30T05:01:12.563Z,68.29
2022-07-30T05:02:16.511Z,67.84
2022-07-30T05:03:19.191Z,66.97
2022-07-30T05:04:23.595Z,66.88
2022-07-30T05:05:26.963Z,67.24
2022-07-30T05:06:30.456Z,66.96
2022-07-30T05:07:32.964Z,66.64
2022-07-30T05:08:35.143Z,65.77
2022-07-30T05:09:37.146Z,65.90
2022-07-30T05:10:38.881Z,64.91
2022-07-30T05:11:40.589Z,64.52
2022-07-30T05:12:42.206Z,65.24
2022-07-30T05:13:46.130Z,64.68
2022-07-30T05:14:48.685Z,64.29
2022-07-30T05:15:50.416Z,64.75
2022-07-30T05:16:53.359Z,63.70
2022-07-30T05:17:54.963Z,60.68
2022-07-30T05:18:56.592Z,61.25
2022-07-30T05:19:58.853Z,61.31
2022-07-30T05:21:01.505Z,61.43
2022-07-30T05:22:06.681Z,60.02
2022-07-30T05:23:08.775Z,60.07
2022-07-30T05:24:10.521Z,60.59
2022-07-30T05:25:16.080Z,59.85
2022-07-30T05:26:21.905Z,60.34
2022-07-30T05:27:29.355Z,60.62
2022-07-30T05:28:31.166Z,60.35
2022-07-30T05:29:32.897Z,60.17
2022-07-30T05:30:34.535Z,59.32
2022-07-30T05:31:38.094Z,59.72
2022-07-30T05:32:39.876Z,60.23
2022-07-30T05:33:42.851Z,59.91
2022-07-30T05:34:45.114Z,58.94
2022-07-30T05:35:51.829Z,58.10
2022-07-30T05:36:53.595Z,58.31
2022-07-30T05:37:55.149Z,57.30
2022-07-30T05:38:56.948Z,57.50
2022-07-30T05:40:02.852Z,58.02
2022-07-30T05:41:05.192Z,57.82
2022-07-30T05:42:26.761Z,55.99
2022-07-30T05:43:28.356Z,55.95
2022-07-30T05:44:30.107Z,55.16
2022-07-30T05:45:31.860Z,55.63
2022-07-30T05:46:33.853Z,55.71
2022-07-30T05:47:36.030Z,56.43
2022-07-30T05:48:37.709Z,56.68
2022-07-30T05:49:39.356Z,56.83
2022-07-30T05:50:41.056Z,55.60
2022-07-30T05:51:42.889Z,56.09
2022-07-30T05:52:46.349Z,55.54
2022-07-30T05:53:48.110Z,55.38
2022-07-30T05:54:49.745Z,54.85
2022-07-30T05:55:51.359Z,55.00
2022-07-30T05:56:53.066Z,55.83
2022-07-30T05:57:54.746Z,56.08
2022-07-30T05:58:56.396Z,56.22
2022-07-30T05:59:58.027Z,54.89
2022-07-30T06:00:59.573Z,55.06
2022-07-30T06:02:03.246Z,55.28
2022-07-30T06:03:05.079Z,55.23
2022-07-30T06:04:06.746Z,54.42
2022-07-30T06:05:08.839Z,53.79
2022-07-30T06:06:10.573Z,54.37
2022-07-30T06:07:12.156Z,54.51
2022-07-30T06:08:13.782Z,52.53
2022-07-30T06:09:15.572Z,52.39
2022-07-30T06:10:17.501Z,52.86
2022-07-30T06:11:19.464Z,52.57
2022-07-30T06:12:21.081Z,52.17
2022-07-30T06:13:22.709Z,52.37
2022-07-30T06:14:24.564Z,53.23
2022-07-30T06:15:26.478Z,53.80
2022-07-30T06:16:28.272Z,53.70
2022-07-30T06:17:30.159Z,54.47
2022-07-30T06:18:32.130Z,54.08
2022-07-30T06:19:33.755Z,54.79
2022-07-30T06:20:35.392Z,53.37
2022-07-30T06:22:06.092Z,53.50
2022-07-30T06:22:58.700Z,53.82
2022-07-30T06:24:00.317Z,54.15
2022-07-30T06:25:01.995Z,54.25
2022-07-30T06:26:04.938Z,54.34
2022-07-30T06:27:06.599Z,53.35
2022-07-30T06:28:34.749Z,53.57
2022-07-30T06:29:29.972Z,53.40
2022-07-30T06:30:31.689Z,53.08
2022-07-30T06:31:34.318Z,52.06
2022-07-30T06:32:36.618Z,52.22
2022-07-30T06:33:38.385Z,52.74
2022-07-30T06:34:40.030Z,52.56
2022-07-30T06:35:42.063Z,53.01
2022-07-30T06:36:43.658Z,51.80
2022-07-30T06:38:05.771Z,51.06
2022-07-30T06:39:06.884Z,50.99
2022-07-30T06:40:09.270Z,51.23
2022-07-30T06:41:11.041Z,51.74
2022-07-30T06:42:12.674Z,51.12
2022-07-30T06:43:14.352Z,50.49
2022-07-30T06:44:15.954Z,50.89
2022-07-30T06:45:18.007Z,50.54
2022-07-30T06:46:19.689Z,50.70
2022-07-30T06:47:26.227Z,49.60
2022-07-30T06:48:29.903Z,49.86
2022-07-30T06:49:32.881Z,48.38
2022-07-30T06:50:36.837Z,48.94
2022-07-30T06:51:38.455Z,48.61
2022-07-30T06:52:40.073Z,48.05
2022-07-30T06:53:42.713Z,47.72
2022-07-30T06:54:44.562Z,47.52
2022-07-30T06:55:46.225Z,47.12
2022-07-30T06:56:47.906Z,46.88
2022-07-30T06:57:49.543Z,46.69
2022-07-30T06:58:51.228Z,46.41
2022-07-30T06:59:56.209Z,47.05
2022-07-30T07:00:59.194Z,46.99
2022-07-30T07:02:00.879Z,46.15
2022-07-30T07:03:02.460Z,45.90
2022-07-30T07:04:04.364Z,46.47
2022-07-30T07:05:07.464Z,46.00
2022-07-30T07:06:09.296Z,44.55
2022-07-30T07:07:13.895Z,45.30
2022-07-30T07:08:38.879Z,44.24
2022-07-30T07:09:44.590Z,44.14
2022-07-30T07:10:46.767Z,44.93
2022-07-30T07:11:48.365Z,44.26
2022-07-30T07:12:49.986Z,44.58
2022-07-30T07:13:51.603Z,45.16
2022-07-30T07:14:53.241Z,45.54
2022-07-30T07:15:55.499Z,44.27
2022-07-30T07:16:57.107Z,45.00
2022-07-30T07:17:58.714Z,45.04
2022-07-30T07:19:04.101Z,45.77
2022-07-30T07:20:06.359Z,44.87
2022-07-30T07:21:08.365Z,44.50
2022-07-30T07:22:09.944Z,45.32
2022-07-30T07:23:12.234Z,44.54
2022-07-30T07:24:14.060Z,44.76
2022-07-30T07:25:16.035Z,43.98
2022-07-30T07:26:17.769Z,45.39
2022-07-30T07:27:19.407Z,45.80
2022-07-30T07:28:21.135Z,44.92
2022-07-30T07:29:22.802Z,44.47
2022-07-30T07:30:24.598Z,44.38
2022-07-30T07:32:05.201Z,44.15
2022-07-30T07:32:47.982Z,42.37
2022-07-30T07:33:49.614Z,42.77
2022-07-30T07:34:51.219Z,43.99
2022-07-30T07:35:54.816Z,43.04
2022-07-30T07:36:56.562Z,44.01
2022-07-30T07:37:58.183Z,43.20
2022-07-30T07:38:59.816Z,43.29
2022-07-30T07:40:01.571Z,41.86
2022-07-30T07:41:03.238Z,42.24
2022-07-30T07:42:04.905Z,42.38
2022-07-30T07:43:06.533Z,41.80
2022-07-30T07:44:08.625Z,42.44
2022-07-30T07:45:10.721Z,41.95
2022-07-30T07:46:16.460Z,41.44
2022-07-30T07:47:19.079Z,42.93
2022-07-30T07:48:20.853Z,41.69
2022-07-30T07:49:22.503Z,40.99
2022-07-30T07:50:24.317Z,41.58
2022-07-30T07:51:46.924Z,42.63
2022-07-30T07:52:47.717Z,40.52
2022-07-30T07:54:18.728Z,41.46
2022-07-30T07:55:11.516Z,41.72
2022-07-30T07:56:15.813Z,42.22
2022-07-30T07:57:17.448Z,41.96
2022-07-30T07:58:25.435Z,42.78
2022-07-30T07:59:39.633Z,43.05
2022-07-30T08:00:42.557Z,42.51
2022-07-30T08:01:46.623Z,43.07
2022-07-30T08:02:49.568Z,43.47
2022-07-30T08:03:51.431Z,43.33
2022-07-30T08:04:53.988Z,43.76
2022-07-30T08:06:04.692Z,43.82
2022-07-30T08:07:08.132Z,44.26
2022-07-30T08:08:09.770Z,44.75
2022-07-30T08:09:17.432Z,45.84
2022-07-30T08:10:19.106Z,44.16
2022-07-30T08:11:20.717Z,43.76
2022-07-30T08:12:22.437Z,43.54
2022-07-30T08:13:51.585Z,42.99
2022-07-30T08:14:48.214Z,41.92
2022-07-30T08:15:50.246Z,41.00
2022-07-30T08:16:51.866Z,42.58
2022-07-30T08:17:53.692Z,41.44
2022-07-30T08:18:55.354Z,41.48
2022-07-30T08:20:00.765Z,40.74
2022-07-30T08:21:02.644Z,41.49
2022-07-30T08:22:04.219Z,42.11
2022-07-30T08:23:07.105Z,41.54
2022-07-30T08:24:08.903Z,40.50
2022-07-30T08:25:10.636Z,41.14
2022-07-30T08:26:12.320Z,42.31
2022-07-30T08:27:13.918Z,42.68
2022-07-30T08:28:35.364Z,41.85
2022-07-30T08:29:37.426Z,41.96
2022-07-30T08:30:39.069Z,41.12
2022-07-30T08:31:40.663Z,40.78
2022-07-30T08:32:42.275Z,41.11
2022-07-30T08:33:43.851Z,41.06
2022-07-30T08:34:45.467Z,40.61
2022-07-30T08:35:54.851Z,40.98
2022-07-30T08:37:00.847Z,41.53
2022-07-30T08:38:02.429Z,40.80
2022-07-30T08:39:04.058Z,40.42
2022-07-30T08:40:06.215Z,39.24
2022-07-30T08:41:08.263Z,38.85
2022-07-30T08:42:10.193Z,38.78
2022-07-30T08:43:11.819Z,39.37
2022-07-30T08:44:13.469Z,39.98
2022-07-30T08:45:17.552Z,39.40
2022-07-30T08:46:23.562Z,40.17
2022-07-30T08:47:32.464Z,38.88
2022-07-30T08:48:35.248Z,40.00
2022-07-30T08:49:37.984Z,39.76
2022-07-30T08:50:40.053Z,38.85
2022-07-30T08:51:42.445Z,39.57
2022-07-30T08:52:44.698Z,39.39
2022-07-30T08:53:47.190Z,38.64
2022-07-30T08:54:48.877Z,39.25
2022-07-30T08:55:50.679Z,39.57
2022-07-30T08:56:52.608Z,40.25
2022-07-30T08:57:54.812Z,38.98
2022-07-30T08:58:57.355Z,39.50
2022-07-30T09:00:01.327Z,39.22
2022-07-30T09:01:06.025Z,38.96
2022-07-30T09:02:12.462Z,39.30
2022-07-30T09:03:14.599Z,38.96
2022-07-30T09:04:16.161Z,39.70
2022-07-30T09:05:17.840Z,39.79
2022-07-30T09:06:19.812Z,38.21
2022-07-30T09:07:21.536Z,39.60
2022-07-30T09:08:23.381Z,40.29
2022-07-30T09:09:25.062Z,42.00
2022-07-30T09:10:27.082Z,40.65
2022-07-30T09:11:28.741Z,40.77
2022-07-30T09:12:40.882Z,41.03
2022-07-30T09:13:44.469Z,40.97
2022-07-30T09:15:20.223Z,40.57
2022-07-30T09:16:24.580Z,41.25
2022-07-30T09:17:28.872Z,41.13
2022-07-30T09:18:37.912Z,41.01
2022-07-30T09:19:39.544Z,41.63
2022-07-30T09:20:41.238Z,41.22
2022-07-30T09:21:43.400Z,42.03
2022-07-30T09:22:51.780Z,41.71
2022-07-30T09:24:03.275Z,42.24
2022-07-30T09:25:05.024Z,41.89
2022-07-30T09:26:06.811Z,41.26
2022-07-30T09:27:10.103Z,39.73
2022-07-30T09:28:16.045Z,39.04
2022-07-30T09:29:20.711Z,40.13
2022-07-30T09:30:22.512Z,41.45
2022-07-30T09:31:24.289Z,41.35
2022-07-30T09:32:25.883Z,41.77
2022-07-30T09:33:40.237Z,41.78
2022-07-30T09:34:42.068Z,41.28
2022-07-30T09:35:43.880Z,42.45
2022-07-30T09:36:45.682Z,41.77
2022-07-30T09:37:47.994Z,42.33
2022-07-30T09:38:52.632Z,40.37
2022-07-30T09:39:58.867Z,41.00
2022-07-30T09:41:04.942Z,40.30
2022-07-30T09:42:22.845Z,40.21
2022-07-30T09:43:27.681Z,40.26
2022-07-30T09:44:30.395Z,41.04
2022-07-30T09:45:34.822Z,40.29
2022-07-30T09:46:47.101Z,39.97
2022-07-30T09:47:49.411Z,41.16
2022-07-30T09:48:51.075Z,40.98
2022-07-30T09:51:56.278Z,39.97
2022-07-30T09:53:11.839Z,40.70
2022-07-30T09:54:13.946Z,40.11
2022-07-30T09:55:30.705Z,40.56
2022-07-30T09:56:32.334Z,39.77
2022-07-30T09:57:34.119Z,40.14
2022-07-30T09:58:40.676Z,40.12
2022-07-30T09:59:47.945Z,39.63
2022-07-30T10:00:58.117Z,38.70
2022-07-30T10:02:03.837Z,38.88
2022-07-30T10:03:21.624Z,38.05
2022-07-30T10:04:36.558Z,37.27
2022-07-30T10:05:53.541Z,36.60
2022-07-30T10:06:56.545Z,36.99
2022-07-30T10:08:02.602Z,36.90
2022-07-30T10:09:14.180Z,38.05
2022-07-30T10:10:20.842Z,37.59
2022-07-30T10:11:23.953Z,38.07
2022-07-30T10:12:26.636Z,38.04
2022-07-30T10:13:29.563Z,38.19
2022-07-30T10:14:42.250Z,38.19
2022-07-30T10:15:45.141Z,36.94
2022-07-30T10:16:47.496Z,36.66
2022-07-30T10:17:49.846Z,36.20
2022-07-30T10:18:52.209Z,37.06
2022-07-30T10:19:54.749Z,36.84
2022-07-30T10:20:56.619Z,36.24
2022-07-30T10:22:01.470Z,36.29
2022-07-30T10:23:09.245Z,36.90
2022-07-30T10:24:12.873Z,37.33
2022-07-30T10:25:23.230Z,36.85
2022-07-30T10:26:34.806Z,37.19
2022-07-30T10:27:37.221Z,36.78
2022-07-30T10:28:42.871Z,36.33
2022-07-30T10:29:45.272Z,36.97
2022-07-30T10:30:50.144Z,35.43
2022-07-30T10:31:54.426Z,35.43
2022-07-30T10:32:58.659Z,35.80
2022-07-30T10:34:02.438Z,34.60
2022-07-30T10:35:05.392Z,34.29
2022-07-30T10:36:10.321Z,35.24
2022-07-30T10:37:13.490Z,35.69
2022-07-30T10:38:17.348Z,36.43
2022-07-30T10:39:24.731Z,35.85
2022-07-30T10:40:35.853Z,35.70
2022-07-30T10:42:05.616Z,35.23
2022-07-30T10:43:17.240Z,35.19
2022-07-30T10:44:28.188Z,35.15
2022-07-30T10:45:46.324Z,35.88
2022-07-30T10:47:07.527Z,36.36
2022-07-30T10:48:10.947Z,36.16
2022-07-30T10:49:18.500Z,36.02
2022-07-30T10:50:26.746Z,36.06
2022-07-30T10:51:48.923Z,34.98
2022-07-30T10:52:57.956Z,33.92
2022-07-30T10:53:59.653Z,34.08
2022-07-30T10:55:01.267Z,34.17
2022-07-30T10:56:19.203Z,33.76
2022-07-30T10:57:32.191Z,33.49
2022-07-30T10:58:57.161Z,33.18
2022-07-30T11:00:04.022Z,34.87
2022-07-30T11:01:06.093Z,33.42
2022-07-30T11:02:20.535Z,34.01
2022-07-30T11:03:40.750Z,33.35
2022-07-30T11:04:46.847Z,32.65
2022-07-30T11:05:50.449Z,32.63
2022-07-30T11:07:17.268Z,32.49
2022-07-30T11:08:42.607Z,32.06
2022-07-30T11:09:44.772Z,31.82
2022-07-30T11:12:01.905Z,32.49
2022-07-30T11:12:53.011Z,32.82
2022-07-30T11:13:57.435Z,33.02
2022-07-30T11:15:06.489Z,32.46
2022-07-30T11:16:21.933Z,31.68
2022-07-30T11:17:24.129Z,31.17
2022-07-30T11:18:27.556Z,30.15
2022-07-30T11:19:53.391Z,30.57
2022-07-30T11:21:16.026Z,30.38
2022-07-30T11:22:31.631Z,31.03
2022-07-30T11:23:39.523Z,31.72
2022-07-30T11:24:47.104Z,31.97
2022-07-30T11:25:54.794Z,32.09
2022-07-30T11:26:56.758Z,32.52
2022-07-30T11:28:00.767Z,34.23
2022-07-30T11:29:04.230Z,33.54
2022-07-30T11:30:27.018Z,34.21
2022-07-30T11:31:55.031Z,33.84
2022-07-30T11:33:18.653Z,33.44
2022-07-30T11:34:20.596Z,33.34
2022-07-30T11:35:34.613Z,32.68
2022-07-30T11:36:37.766Z,33.03
2022-07-30T11:38:07.466Z,32.85
2022-07-30T11:39:10.088Z,33.47
2022-07-30T11:40:12.971Z,32.90
2022-07-30T11:41:14.589Z,32.57
2022-07-30T11:42:36.739Z,33.13
2022-07-30T11:43:41.566Z,33.53
2022-07-30T11:44:46.900Z,33.07
2022-07-30T11:45:53.499Z,33.34
2022-07-30T11:46:55.862Z,33.28
2022-07-30T11:48:00.254Z,30.82
2022-07-30T11:49:08.278Z,31.45
2022-07-30T11:50:31.343Z,33.11
2022-07-30T11:51:44.046Z,33.84
2022-07-30T11:52:52.156Z,34.24
2022-07-30T11:54:05.316Z,32.80
2022-07-30T11:55:07.385Z,32.48
2022-07-30T11:56:10.481Z,32.81
2022-07-30T11:57:16.348Z,32.61
2022-07-30T11:58:26.973Z,33.93
2022-07-30T11:59:28.561Z,33.51
2022-07-30T12:00:47.963Z,33.18
2022-07-30T12:01:56.923Z,33.21
2022-07-30T12:03:02.411Z,33.16
2022-07-30T12:04:06.972Z,32.54
2022-07-30T12:05:08.735Z,33.15
2022-07-30T12:06:21.294Z,33.70
2022-07-30T12:07:25.854Z,32.10
2022-07-30T12:08:35.826Z,32.15
2022-07-30T12:09:38.012Z,32.21
2022-07-30T12:10:57.458Z,32.18
2022-07-30T12:12:00.987Z,32.01
2022-07-30T12:13:14.083Z,31.92
2022-07-30T12:14:15.751Z,31.24
2022-07-30T12:15:32.487Z,31.47
2022-07-30T12:16:34.664Z,31.30
2022-07-30T12:17:44.029Z,31.42
2022-07-30T12:18:47.157Z,31.82
2022-07-30T12:19:49.169Z,31.68
2022-07-30T12:20:59.610Z,31.76
2022-07-30T12:22:01.494Z,31.92
2022-07-30T12:23:09.681Z,31.46
2022-07-30T12:24:11.692Z,32.25
2022-07-30T12:25:14.584Z,32.46
2022-07-30T12:26:27.732Z,32.33
2022-07-30T12:27:29.358Z,32.12
2022-07-30T12:28:34.115Z,31.92
2022-07-30T12:29:36.428Z,33.02
2022-07-30T12:30:39.687Z,32.00
2022-07-30T12:31:41.914Z,32.30
2022-07-30T12:32:48.008Z,31.74
2022-07-30T12:33:49.724Z,32.40
2022-07-30T12:34:58.087Z,32.72
2022-07-30T12:36:00.996Z,31.74
2022-07-30T12:37:10.150Z,32.32
2022-07-30T12:38:12.313Z,31.98
2022-07-30T12:39:20.282Z,31.96
2022-07-30T12:40:21.919Z,31.10
2022-07-30T12:41:40.054Z,31.32
2022-07-30T12:42:54.146Z,32.03
2022-07-30T12:43:56.343Z,31.72
2022-07-30T12:44:58.355Z,32.00
2022-07-30T12:46:00.532Z,31.18
2022-07-30T12:47:04.515Z,31.58
2022-07-30T12:48:11.324Z,31.34
2022-07-30T12:49:22.738Z,31.32
2022-07-30T12:50:25.788Z,31.92
2022-07-30T12:51:32.701Z,31.61
2022-07-30T12:52:38.323Z,31.45
2022-07-30T12:53:39.986Z,31.77
2022-07-30T12:54:42.214Z,32.56
2022-07-30T12:55:44.589Z,32.29
2022-07-30T12:57:04.546Z,32.26
2022-07-30T12:58:08.600Z,32.58
2022-07-30T12:59:21.771Z,33.10
2022-07-30T13:00:25.637Z,32.56
2022-07-30T13:01:44.437Z,33.05
2022-07-30T13:02:46.120Z,33.36
2022-07-30T13:03:47.950Z,33.51
2022-07-30T13:05:10.185Z,33.27
2022-07-30T13:06:14.978Z,33.91
2022-07-30T13:07:16.810Z,34.02
2022-07-30T13:08:18.661Z,33.44
2022-07-30T13:09:21.156Z,32.83
2022-07-30T13:10:25.145Z,33.43
2022-07-30T13:11:48.968Z,33.17
2022-07-30T13:12:51.303Z,33.00
2022-07-30T13:13:53.518Z,33.41
2022-07-30T13:14:55.516Z,32.53
2022-07-30T13:16:01.378Z,32.60
2022-07-30T13:17:04.250Z,32.75
2022-07-30T13:18:06.310Z,32.99
2022-07-30T13:19:11.683Z,32.89
2022-07-30T13:20:17.524Z,33.26
2022-07-30T13:21:19.600Z,33.03
2022-07-30T13:22:21.717Z,33.92
2022-07-30T13:23:24.536Z,34.56
2022-07-30T13:24:26.113Z,33.96
2022-07-30T13:25:28.190Z,34.26
2022-07-30T13:26:42.385Z,34.50
2022-07-30T13:27:44.076Z,33.65
2022-07-30T13:28:48.621Z,33.75
2022-07-30T13:29:50.189Z,33.67
2022-07-30T13:30:52.434Z,33.11
2022-07-30T13:31:54.078Z,32.59
2022-07-30T13:32:55.712Z,33.63
2022-07-30T13:33:57.372Z,32.89
2022-07-30T13:35:01.609Z,33.08
2022-07-30T13:36:04.119Z,32.49
2022-07-30T13:37:05.917Z,33.55
2022-07-30T13:38:08.040Z,33.93
2022-07-30T13:39:11.288Z,34.66
2022-07-30T13:40:12.999Z,34.71
2022-07-30T13:41:16.572Z,35.47
2022-07-30T13:42:18.185Z,35.27
2022-07-30T13:43:20.582Z,35.06
2022-07-30T13:44:22.176Z,34.04
2022-07-30T13:45:23.845Z,34.95
2022-07-30T13:46:25.464Z,34.09
2022-07-30T13:47:27.069Z,34.67
2022-07-30T13:48:28.925Z,33.75
2022-07-30T13:49:30.570Z,34.42
2022-07-30T13:50:32.230Z,34.00
2022-07-30T13:51:34.319Z,33.32
2022-07-30T13:52:36.016Z,34.58
2022-07-30T13:53:37.653Z,32.87
2022-07-30T13:54:39.260Z,32.21
2022-07-30T13:55:42.833Z,33.02
2022-07-30T13:56:44.397Z,34.05
2022-07-30T13:57:46.699Z,33.70
2022-07-30T13:58:48.461Z,34.82
2022-07-30T13:59:50.042Z,36.16